Time;durP1;ratioP1;P1;durP2;ratioP2;P2;SDS_P1;SDS_P2;PMS_P1;PMS_P2;Temp;Humidity;BMP_temperature;BMP_pressure;BME280_temperature;BME280_humidity;BME280_pressure;Samples;Min_cycle;Max_cycle;Signal;HPM_P1;HPM_P2
2022/09/17 04:00:32;;;;;;;2.50;2.30;;;10.20;99.90;;;;;;6090220;23;21876;31
2022/09/17 04:02:59;;;;;;;3.30;2.30;;;10.10;99.90;;;;;;4946335;29;20973;-72
2022/09/17 04:05:26;;;;;;;4.47;2.70;;;10.20;99.90;;;;;;4947294;29;20969;-74
2022/09/17 04:07:52;;;;;;;7.77;2.80;;;10.10;99.90;;;;;;4947596;29;20540;-75
2022/09/17 04:10:19;;;;;;;5.23;2.63;;;10.10;99.90;;;;;;4947421;29;20464;-74
2022/09/17 04:12:46;;;;;;;7.40;2.60;;;10.10;99.90;;;;;;4947337;29;20500;-73
2022/09/17 04:15:13;;;;;;;4.63;2.57;;;10.10;99.90;;;;;;4947024;29;20477;-72
2022/09/17 04:17:41;;;;;;;3.60;2.30;;;10.10;99.90;;;;;;4947553;29;20611;-78
2022/09/17 04:20:08;;;;;;;7.00;2.60;;;10.10;99.90;;;;;;4947692;29;20469;-72
2022/09/17 04:22:35;;;;;;;4.70;2.50;;;10.00;99.90;;;;;;4947832;28;20474;-72
2022/09/17 04:25:02;;;;;;;7.60;2.83;;;10.00;99.90;;;;;;4947205;29;20461;-72
2022/09/17 04:27:28;;;;;;;3.37;2.60;;;9.90;99.90;;;;;;4947021;29;21273;-73
2022/09/17 04:29:55;;;;;;;8.57;2.80;;;9.90;99.90;;;;;;4947688;29;20461;-73
2022/09/17 04:32:22;;;;;;;6.60;3.00;;;9.90;99.90;;;;;;4946972;29;20859;-73
2022/09/17 04:34:50;;;;;;;7.97;2.60;;;9.90;99.90;;;;;;4946823;29;20476;-74
2022/09/17 04:37:18;;;;;;;4.37;2.50;;;9.90;99.90;;;;;;4947075;29;20476;-75
2022/09/17 04:39:45;;;;;;;5.10;3.10;;;9.90;99.90;;;;;;4947615;29;20785;-76
2022/09/17 04:42:12;;;;;;;4.63;2.83;;;9.90;99.90;;;;;;4946837;29;20507;-75
2022/09/17 04:44:38;;;;;;;8.43;3.10;;;9.90;99.90;;;;;;4946546;29;20468;-72
2022/09/17 04:47:05;;;;;;;3.60;2.40;;;9.90;99.90;;;;;;4946478;29;20473;-74
2022/09/17 04:49:32;;;;;;;7.03;2.90;;;10.00;99.90;;;;;;4948068;28;20473;-72
2022/09/17 04:52:00;;;;;;;3.77;2.50;;;10.00;99.90;;;;;;4948629;29;20482;-73
2022/09/17 04:54:27;;;;;;;3.10;2.40;;;10.00;99.90;;;;;;4947130;29;20516;-73
2022/09/17 04:56:54;;;;;;;7.37;3.10;;;9.90;99.90;;;;;;4949049;29;20473;-73
2022/09/17 04:59:21;;;;;;;3.90;2.53;;;9.90;99.90;;;;;;4948106;29;20473;-68
2022/09/17 05:01:48;;;;;;;11.03;3.60;;;9.90;99.90;;;;;;4947502;29;20877;-68
2022/09/17 05:04:15;;;;;;;5.30;3.00;;;9.80;99.90;;;;;;4947057;29;20497;-68
2022/09/17 05:06:42;;;;;;;4.87;3.17;;;9.90;99.90;;;;;;4949015;28;20958;-75
2022/09/17 05:09:10;;;;;;;5.27;3.10;;;9.80;99.90;;;;;;4955343;29;20930;-75
2022/09/17 05:11:36;;;;;;;4.17;3.00;;;9.80;99.90;;;;;;4954828;28;20481;-76
2022/09/17 05:14:03;;;;;;;5.30;3.70;;;9.80;99.90;;;;;;4953165;29;20505;-80
2022/09/17 05:16:30;;;;;;;5.33;3.33;;;9.80;99.90;;;;;;4955341;29;20489;-77
2022/09/17 05:18:57;;;;;;;7.77;3.40;;;9.90;99.90;;;;;;4953311;29;20801;-75
2022/09/17 05:21:24;;;;;;;6.13;3.60;;;9.80;99.90;;;;;;4954267;29;20488;-80
2022/09/17 05:23:51;;;;;;;5.30;3.43;;;9.80;99.90;;;;;;4953467;29;20454;-76
2022/09/17 05:26:19;;;;;;;5.40;3.23;;;9.80;99.90;;;;;;4953457;29;20822;-75
2022/09/17 05:28:46;;;;;;;4.07;3.30;;;9.80;99.90;;;;;;4954307;29;20570;-77
2022/09/17 05:31:13;;;;;;;6.60;3.83;;;9.80;99.90;;;;;;4954614;28;20485;-77
2022/09/17 05:33:39;;;;;;;7.30;4.33;;;9.80;99.90;;;;;;4953825;29;20997;-76
2022/09/17 05:36:07;;;;;;;6.60;3.63;;;9.80;99.90;;;;;;4951835;29;20957;-76
2022/09/17 05:38:34;;;;;;;5.53;4.00;;;9.70;99.90;;;;;;4953355;29;20497;-75
2022/09/17 05:41:05;;;;;;;5.40;3.73;;;9.70;99.90;;;;;;4952168;28;20564;-75
2022/09/17 05:43:35;;;;;;;5.93;3.23;;;9.80;99.90;;;;;;4933317;29;20931;-78
2022/09/17 05:46:03;;;;;;;3.90;3.10;;;9.80;99.90;;;;;;4947693;29;20472;-74
2022/09/17 05:48:32;;;;;;;5.50;3.90;;;9.80;99.90;;;;;;4953631;28;20540;-77
2022/09/17 05:50:59;;;;;;;6.00;3.70;;;9.80;99.90;;;;;;4954309;28;20484;-73
2022/09/17 05:53:26;;;;;;;13.03;5.03;;;9.80;99.90;;;;;;4954215;28;20491;-78
2022/09/17 05:55:56;;;;;;;6.90;3.47;;;9.90;99.90;;;;;;4953842;28;20461;-76
2022/09/17 05:58:23;;;;;;;7.33;4.00;;;9.80;99.90;;;;;;4953238;28;20433;-77
2022/09/17 06:00:52;;;;;;;5.50;3.63;;;9.90;99.90;;;;;;4953151;28;20873;-75
2022/09/17 06:03:21;;;;;;;6.27;4.07;;;9.90;99.90;;;;;;4953544;29;20457;-75
2022/09/17 06:05:53;;;;;;;5.50;3.30;;;9.80;99.90;;;;;;4952854;29;20466;-74
2022/09/17 06:08:20;;;;;;;3.80;3.10;;;9.80;99.90;;;;;;4953971;29;20446;-78
2022/09/17 06:10:48;;;;;;;5.67;3.83;;;9.80;99.90;;;;;;4953497;29;20476;-74
2022/09/17 06:13:15;;;;;;;6.60;3.73;;;9.80;99.90;;;;;;4952221;29;21038;-76
2022/09/17 06:15:41;;;;;;;7.13;3.80;;;9.80;99.90;;;;;;4951944;29;20464;-75
2022/09/17 06:18:09;;;;;;;8.97;3.60;;;9.70;99.90;;;;;;4952054;29;20465;-74
2022/09/17 06:20:36;;;;;;;8.70;3.80;;;9.70;99.90;;;;;;4950898;29;20493;-74
2022/09/17 06:23:03;;;;;;;5.80;3.47;;;9.70;99.90;;;;;;4952125;29;20454;-74
2022/09/17 06:25:30;;;;;;;5.63;4.00;;;9.70;99.90;;;;;;4951348;29;20520;-76
2022/09/17 06:27:57;;;;;;;6.20;3.70;;;9.70;99.90;;;;;;4952093;28;20514;-77
2022/09/17 06:30:24;;;;;;;10.70;3.40;;;9.70;99.90;;;;;;4951719;28;20465;-73
2022/09/17 06:32:51;;;;;;;6.33;3.87;;;9.70;99.90;;;;;;4951364;29;20458;-77
2022/09/17 06:35:19;;;;;;;7.10;3.30;;;9.70;99.90;;;;;;4951732;29;20461;-73
2022/09/17 06:37:46;;;;;;;6.40;3.47;;;9.60;99.90;;;;;;4953230;29;20878;-73
2022/09/17 06:40:14;;;;;;;5.07;3.20;;;9.70;99.90;;;;;;4962310;28;20445;-72
2022/09/17 06:42:41;;;;;;;3.67;3.30;;;9.70;99.90;;;;;;4956361;28;20454;-72
2022/09/17 06:45:09;;;;;;;8.80;3.93;;;9.70;99.90;;;;;;4951218;28;20542;-76
2022/09/17 06:47:35;;;;;;;4.27;3.70;;;9.70;99.90;;;;;;4951880;28;20450;-76
2022/09/17 06:50:02;;;;;;;5.47;3.50;;;9.70;99.90;;;;;;4944734;29;20461;-73
2022/09/17 06:52:30;;;;;;;10.00;3.73;;;9.70;99.90;;;;;;4951585;29;20989;-73
2022/09/17 06:54:57;;;;;;;5.80;3.73;;;9.70;99.90;;;;;;4951319;28;20497;-76
2022/09/17 06:57:24;;;;;;;4.53;3.23;;;9.70;99.90;;;;;;4951662;28;20453;-76
2022/09/17 06:59:51;;;;;;;10.07;3.57;;;9.70;99.90;;;;;;4951728;29;20488;-74
2022/09/17 07:02:17;;;;;;;8.07;3.60;;;9.70;99.90;;;;;;4950558;29;20496;-73
2022/09/17 07:04:44;;;;;;;7.70;3.70;;;9.70;99.90;;;;;;4950878;29;20469;-76
2022/09/17 07:07:14;;;;;;;5.37;3.87;;;9.80;99.90;;;;;;4949426;29;20461;-75
2022/09/17 07:09:42;;;;;;;5.23;3.40;;;9.80;99.90;;;;;;4947176;29;20509;-75
2022/09/17 07:12:09;;;;;;;9.03;3.67;;;9.80;99.90;;;;;;4947609;29;20485;-75
2022/09/17 07:14:36;;;;;;;6.73;3.70;;;9.80;99.90;;;;;;4986887;23;20510;-75
2022/09/17 07:17:03;;;;;;;8.50;4.13;;;9.80;99.90;;;;;;4986976;28;20455;-76
2022/09/17 07:19:30;;;;;;;5.80;3.87;;;9.80;99.90;;;;;;4992853;28;20467;-77
2022/09/17 07:21:57;;;;;;;8.40;4.73;;;9.80;99.90;;;;;;4993373;28;20459;-78
2022/09/17 07:24:24;;;;;;;9.70;4.40;;;9.80;99.90;;;;;;4988151;28;20557;-77
2022/09/17 07:26:52;;;;;;;4.93;3.73;;;9.80;99.90;;;;;;4973431;28;20459;-76
2022/09/17 07:29:20;;;;;;;6.93;4.10;;;9.80;99.90;;;;;;4973448;28;20956;-76
2022/09/17 07:31:47;;;;;;;9.73;4.03;;;9.70;99.90;;;;;;4973571;28;20474;-77
2022/09/17 07:34:14;;;;;;;7.30;4.70;;;9.80;99.90;;;;;;4974920;28;20511;-77
2022/09/17 07:36:40;;;;;;;7.77;5.03;;;9.70;99.90;;;;;;4974669;28;20456;-77
2022/09/17 07:39:08;;;;;;;11.53;4.53;;;9.70;99.90;;;;;;4974029;28;20499;-77
2022/09/17 07:41:35;;;;;;;6.63;4.67;;;9.70;99.90;;;;;;4973865;28;20453;-77
2022/09/17 07:44:03;;;;;;;6.53;5.00;;;9.70;99.90;;;;;;4973675;28;20457;-77
2022/09/17 07:46:30;;;;;;;5.80;4.17;;;9.60;99.90;;;;;;4973962;28;20467;-77
2022/09/17 07:48:57;;;;;;;7.90;5.53;;;9.70;99.90;;;;;;4973944;28;20466;-77
2022/09/17 07:51:32;;;;;;;10.03;4.47;;;9.70;99.90;;;;;;5089257;27;21128;-77
2022/09/17 07:54:01;;;;;;;6.03;4.70;;;9.70;99.90;;;;;;5089280;28;20470;-77
2022/09/17 07:56:28;;;;;;;6.23;4.17;;;9.70;99.90;;;;;;5089137;28;20939;-77
2022/09/17 07:58:55;;;;;;;11.20;4.13;;;9.70;99.90;;;;;;5089351;28;20448;-77
2022/09/17 08:01:22;;;;;;;5.23;4.60;;;9.70;99.90;;;;;;5089496;28;20451;-77
2022/09/17 08:03:50;;;;;;;7.77;4.63;;;9.70;99.90;;;;;;5118557;22;20492;-76
2022/09/17 08:06:20;;;;;;;11.97;5.80;;;9.70;99.90;;;;;;5068144;28;20455;-76
2022/09/17 08:08:48;;;;;;;8.97;4.70;;;9.70;99.90;;;;;;5068692;28;20457;-76
2022/09/17 08:11:18;;;;;;;10.30;5.20;;;9.70;99.90;;;;;;5068336;28;20858;-76
2022/09/17 08:13:48;;;;;;;5.73;4.60;;;9.70;99.90;;;;;;5068585;28;21028;-76
2022/09/17 08:16:15;;;;;;;7.30;5.03;;;9.80;99.90;;;;;;5068151;28;20510;-76
2022/09/17 08:18:42;;;;;;;7.30;4.90;;;9.70;99.90;;;;;;5068028;28;20971;-76
2022/09/17 08:21:12;;;;;;;6.67;5.40;;;9.70;99.90;;;;;;5068148;28;20558;-76
2022/09/17 08:23:40;;;;;;;12.10;5.87;;;9.70;99.90;;;;;;5068337;28;20469;-76
2022/09/17 08:26:12;;;;;;;9.23;5.30;;;9.80;99.90;;;;;;5067692;28;20510;-76
2022/09/17 08:28:38;;;;;;;9.73;4.73;;;9.80;99.90;;;;;;5068462;28;20454;-76
2022/09/17 08:31:07;;;;;;;9.57;5.23;;;9.80;99.90;;;;;;5068070;28;20488;-76
2022/09/17 08:33:35;;;;;;;8.43;5.53;;;9.80;99.90;;;;;;5068153;28;20476;-76
2022/09/17 08:36:02;;;;;;;11.70;6.17;;;9.80;99.90;;;;;;5067966;28;20463;-76
2022/09/17 08:38:31;;;;;;;9.17;6.33;;;9.80;99.90;;;;;;5068372;28;20459;-76
2022/09/17 08:41:09;;;;;;;11.30;5.53;;;9.80;99.90;;;;;;5068688;28;20463;-76
2022/09/17 08:43:44;;;;;;;13.77;5.80;;;9.70;99.90;;;;;;5068322;28;20516;-76
2022/09/17 08:46:12;;;;;;;12.17;6.13;;;9.70;99.90;;;;;;5067730;28;20437;-76
2022/09/17 08:48:42;;;;;;;8.10;5.93;;;9.80;99.90;;;;;;5067683;28;20467;-76
2022/09/17 08:51:23;;;;;;;10.57;6.67;;;9.80;99.90;;;;;;5067898;28;20487;-76
2022/09/17 08:54:01;;;;;;;8.20;6.00;;;9.80;99.90;;;;;;5068124;28;20853;-76
2022/09/17 08:56:30;;;;;;;11.97;6.10;;;9.90;99.90;;;;;;5067582;28;20538;-76
2022/09/17 08:59:14;;;;;;;8.30;4.40;;;10.00;99.90;;;;;;5067674;28;20464;-76
2022/09/17 09:01:48;;;;;;;8.37;5.03;;;10.00;99.90;;;;;;5061331;28;20457;-78
2022/09/17 09:04:43;;;;;;;12.53;5.33;;;10.10;99.90;;;;;;5054095;28;20484;-77
2022/09/17 09:07:16;;;;;;;8.13;5.33;;;10.20;99.90;;;;;;5034639;28;20805;-76
2022/09/17 09:09:48;;;;;;;7.27;5.23;;;10.20;99.90;;;;;;5054175;28;20436;-76
2022/09/17 09:12:22;;;;;;;6.50;4.60;;;10.30;99.90;;;;;;5054675;28;20460;-76
2022/09/17 09:14:57;;;;;;;9.40;4.80;;;10.40;99.90;;;;;;5054063;28;20861;-76
2022/09/17 09:17:29;;;;;;;7.80;4.10;;;10.50;99.90;;;;;;5054557;28;20808;-76
2022/09/17 09:19:56;;;;;;;10.53;4.13;;;10.60;99.90;;;;;;5054057;28;20492;-76
2022/09/17 09:22:45;;;;;;;12.30;5.00;;;10.60;99.90;;;;;;5054121;28;20463;-76
2022/09/17 09:25:22;;;;;;;11.23;4.70;;;10.70;99.90;;;;;;5053573;28;20441;-76
2022/09/17 09:28:06;;;;;;;7.80;4.00;;;10.90;99.90;;;;;;5053564;28;20460;-77
2022/09/17 09:30:46;;;;;;;6.23;3.53;;;11.00;99.90;;;;;;5053086;28;20874;-77
2022/09/17 09:33:16;;;;;;;7.10;3.77;;;11.10;99.90;;;;;;5052707;28;20539;-77
2022/09/17 09:35:44;;;;;;;9.47;3.20;;;11.10;99.90;;;;;;5052845;28;20967;-76
2022/09/17 09:38:20;;;;;;;9.40;3.67;;;11.20;99.90;;;;;;5053665;28;20453;-76
2022/09/17 09:40:53;;;;;;;14.53;3.90;;;11.20;99.90;;;;;;5053744;28;20527;-77
2022/09/17 09:43:24;;;;;;;11.13;3.40;;;11.20;99.90;;;;;;5053497;28;20483;-77
2022/09/17 09:46:20;;;;;;;14.93;4.10;;;11.20;99.90;;;;;;5052972;28;20453;-76
2022/09/17 09:48:59;;;;;;;9.50;3.23;;;11.20;99.90;;;;;;5053473;28;20464;-76
2022/09/17 09:51:36;;;;;;;5.53;2.77;;;11.30;99.90;;;;;;5053287;28;20546;-77
2022/09/17 09:54:14;;;;;;;13.47;3.40;;;11.30;99.90;;;;;;5053169;28;20476;-77
2022/09/17 09:56:54;;;;;;;7.63;3.10;;;11.30;99.90;;;;;;5052891;28;20471;-77
2022/09/17 09:59:22;;;;;;;5.27;3.27;;;11.30;99.90;;;;;;5053368;28;20445;-77
2022/09/17 10:01:50;;;;;;;8.67;3.20;;;11.30;99.90;;;;;;5053279;28;20544;-76
2022/09/17 10:04:20;;;;;;;6.90;3.17;;;11.30;99.90;;;;;;5052519;28;20488;-76
2022/09/17 10:06:49;;;;;;;11.27;2.97;;;11.30;99.90;;;;;;5053200;28;20464;-77
2022/09/17 10:09:20;;;;;;;7.67;3.47;;;11.30;99.90;;;;;;5052519;28;20452;-76
2022/09/17 10:12:04;;;;;;;10.30;3.30;;;11.30;99.90;;;;;;5052635;28;21023;-76
2022/09/17 10:14:32;;;;;;;7.23;3.20;;;11.30;99.90;;;;;;5051524;28;20464;-76
2022/09/17 10:17:28;;;;;;;10.87;3.63;;;11.40;99.90;;;;;;5052986;28;20460;-77
2022/09/17 10:20:16;;;;;;;12.17;3.00;;;11.60;99.90;;;;;;5006009;28;20527;-77
2022/09/17 10:22:44;;;;;;;8.73;2.60;;;11.90;99.90;;;;;;5052523;28;20448;-77
2022/09/17 10:25:28;;;;;;;6.47;2.27;;;12.10;99.90;;;;;;5052510;28;20453;-77
2022/09/17 10:27:56;;;;;;;10.33;3.23;;;12.20;99.90;;;;;;5052493;28;20455;-76
2022/09/17 10:30:24;;;;;;;3.30;2.43;;;12.40;99.90;;;;;;5052466;28;20489;-77
2022/09/17 10:33:21;;;;;;;6.60;2.20;;;12.40;99.90;;;;;;5052389;28;20477;-78
2022/09/17 10:35:57;;;;;;;8.37;3.17;;;12.40;99.90;;;;;;5052450;28;20460;-77
2022/09/17 10:38:29;;;;;;;5.47;2.40;;;12.40;99.90;;;;;;5052122;28;20882;-77
2022/09/17 10:41:13;;;;;;;8.63;2.97;;;12.50;99.90;;;;;;5052600;28;20564;-77
2022/09/17 10:43:41;;;;;;;9.00;2.77;;;12.50;99.90;;;;;;5052601;28;20484;-77
2022/09/17 10:46:16;;;;;;;12.93;3.77;;;12.50;99.90;;;;;;5052447;28;20461;-77
2022/09/17 10:48:53;;;;;;;4.77;2.27;;;12.50;99.90;;;;;;5052067;28;20464;-77
2022/09/17 10:51:23;;;;;;;10.70;3.80;;;12.40;99.90;;;;;;5052240;28;21001;-77
2022/09/17 10:54:14;;;;;;;9.13;3.63;;;12.40;99.90;;;;;;5052332;28;20987;-77
2022/09/17 10:56:49;;;;;;;12.00;3.83;;;12.40;99.90;;;;;;5052152;28;20442;-78
2022/09/17 10:59:43;;;;;;;10.23;3.83;;;12.40;99.90;;;;;;5052244;28;20824;-76
2022/09/17 11:02:42;;;;;;;6.50;3.23;;;12.40;99.90;;;;;;5052526;28;20460;-76
2022/09/17 11:05:33;;;;;;;8.40;3.80;;;12.40;99.90;;;;;;5052174;28;20460;-76
2022/09/17 11:08:11;;;;;;;4.83;3.00;;;12.40;99.90;;;;;;5052629;28;20445;-76
2022/09/17 11:10:43;;;;;;;4.63;2.83;;;12.40;99.90;;;;;;5052044;28;20488;-77
2022/09/17 11:13:21;;;;;;;6.50;3.60;;;12.40;99.90;;;;;;5051771;28;20843;-76
2022/09/17 11:16:07;;;;;;;7.60;3.00;;;12.40;99.90;;;;;;5051531;28;20444;-77
2022/09/17 11:18:41;;;;;;;7.20;3.07;;;12.40;99.90;;;;;;5052036;28;20441;-77
2022/09/17 11:21:27;;;;;;;5.50;2.30;;;12.40;99.90;;;;;;5051932;28;20495;-77
2022/09/17 11:24:25;;;;;;;6.43;2.40;;;12.30;99.90;;;;;;5051678;28;21019;-77
2022/09/17 11:26:56;;;;;;;4.33;1.70;;;12.00;99.90;;;;;;5052115;28;20461;-76
2022/09/17 11:29:43;;;;;;;1.63;1.40;;;11.80;99.90;;;;;;5051609;28;20468;-77
2022/09/17 11:32:26;;;;;;;4.90;1.87;;;11.80;99.90;;;;;;5051563;28;20492;-76
2022/09/17 11:35:00;;;;;;;2.87;1.27;;;11.80;99.90;;;;;;5051126;28;20851;-77
2022/09/17 11:37:33;;;;;;;3.30;1.50;;;11.70;99.90;;;;;;5051329;28;20465;-76
2022/09/17 11:40:03;;;;;;;5.07;2.73;;;11.80;99.90;;;;;;5051596;28;20441;-77
2022/09/17 11:42:33;;;;;;;4.30;2.40;;;11.80;99.90;;;;;;5051694;28;20453;-76
2022/09/17 11:45:14;;;;;;;5.33;2.23;;;11.80;99.90;;;;;;5051233;28;20433;-77
2022/09/17 11:47:45;;;;;;;5.37;1.90;;;11.70;99.90;;;;;;5051361;28;20542;-77
2022/09/17 11:50:19;;;;;;;2.13;1.40;;;11.70;99.90;;;;;;5051542;28;20446;-76
2022/09/17 11:53:00;;;;;;;3.97;1.90;;;11.60;99.90;;;;;;5051251;28;20449;-77
2022/09/17 11:55:33;;;;;;;2.00;1.80;;;11.60;99.90;;;;;;5051039;28;20448;-77
2022/09/17 11:58:08;;;;;;;3.83;2.20;;;11.60;99.90;;;;;;5051397;28;20445;-77
2022/09/17 12:00:42;;;;;;;4.03;2.23;;;11.60;99.90;;;;;;5051163;28;20437;-77
2022/09/17 12:03:16;;;;;;;7.83;2.67;;;11.60;99.90;;;;;;5050906;28;20485;-76
2022/09/17 12:05:47;;;;;;;4.70;3.17;;;11.70;99.90;;;;;;5050562;28;20465;-77
2022/09/17 12:08:21;;;;;;;8.33;3.20;;;11.90;99.90;;;;;;5051223;28;20471;-77
2022/09/17 12:10:52;;;;;;;6.37;3.00;;;12.00;99.90;;;;;;5051232;28;20576;-77
2022/09/17 12:13:30;;;;;;;6.73;3.90;;;12.10;99.90;;;;;;5050866;28;20480;-77
2022/09/17 12:16:15;;;;;;;7.13;3.30;;;12.30;99.90;;;;;;5051077;28;20437;-77
2022/09/17 12:18:55;;;;;;;3.93;2.97;;;12.40;99.90;;;;;;5051079;28;20473;-77
2022/09/17 12:21:26;;;;;;;6.27;2.67;;;12.70;99.90;;;;;;5050801;28;20443;-77
2022/09/17 12:23:59;;;;;;;6.87;2.70;;;13.10;99.90;;;;;;5051089;28;20481;-77
2022/09/17 12:26:57;;;;;;;8.23;2.60;;;13.40;99.90;;;;;;5050693;28;20460;-77
2022/09/17 12:29:36;;;;;;;2.80;2.43;;;13.70;99.90;;;;;;5050788;28;20524;-77
2022/09/17 12:32:15;;;;;;;6.63;2.60;;;13.70;99.90;;;;;;5050838;28;20477;-77
2022/09/17 12:34:50;;;;;;;5.33;2.93;;;13.70;99.90;;;;;;5050474;28;20469;-77
2022/09/17 12:37:24;;;;;;;5.03;2.57;;;13.70;99.90;;;;;;5052715;28;20436;-77
2022/09/17 12:40:08;;;;;;;6.30;3.03;;;13.60;99.90;;;;;;5054763;28;20432;-77
2022/09/17 12:42:47;;;;;;;8.50;2.67;;;13.40;99.90;;;;;;5054430;28;20459;-77
2022/09/17 12:45:31;;;;;;;5.23;2.10;;;13.40;99.90;;;;;;5054369;28;20441;-77
2022/09/17 12:48:32;;;;;;;8.77;2.33;;;13.20;99.90;;;;;;5054731;28;20448;-77
2022/09/17 12:51:11;;;;;;;2.90;1.80;;;13.10;99.90;;;;;;5050065;28;20499;-77
2022/09/17 12:53:51;;;;;;;3.73;1.90;;;13.00;99.90;;;;;;5054201;28;20481;-77
2022/09/17 12:56:31;;;;;;;7.00;2.30;;;12.90;99.90;;;;;;5054161;28;20452;-77
2022/09/17 12:59:08;;;;;;;8.37;2.20;;;13.00;99.90;;;;;;5054046;28;20444;-77
2022/09/17 13:01:43;;;;;;;4.50;2.00;;;13.10;99.90;;;;;;5054060;28;20485;-77
2022/09/17 13:04:28;;;;;;;2.33;1.80;;;13.20;99.90;;;;;;5053367;28;20486;-77
2022/09/17 13:07:27;;;;;;;4.70;2.20;;;13.30;99.90;;;;;;5054252;28;20448;-77
2022/09/17 13:10:29;;;;;;;8.23;2.00;;;13.40;99.90;;;;;;5054336;28;20441;-77
2022/09/17 13:13:05;;;;;;;4.83;2.13;;;13.50;99.90;;;;;;5053733;28;20493;-77
2022/09/17 13:15:46;;;;;;;3.43;1.97;;;13.60;99.90;;;;;;5053895;28;20447;-77
2022/09/17 13:18:20;;;;;;;2.90;1.50;;;13.70;99.90;;;;;;5053908;28;20433;-76
2022/09/17 13:21:01;;;;;;;2.93;1.20;;;13.60;99.90;;;;;;5053631;28;20453;-76
2022/09/17 13:23:39;;;;;;;2.90;1.70;;;13.70;99.90;;;;;;5053905;28;20477;-76
2022/09/17 13:26:08;;;;;;;4.57;1.60;;;13.70;99.90;;;;;;5053788;28;20452;-76
2022/09/17 13:28:44;;;;;;;3.37;1.67;;;13.50;99.90;;;;;;5053796;28;20456;-77
2022/09/17 13:31:11;;;;;;;6.53;1.60;;;13.40;99.90;;;;;;5053201;28;20847;-77
2022/09/17 13:33:57;;;;;;;2.07;1.43;;;13.30;99.90;;;;;;5053697;28;20480;-76
2022/09/17 13:36:45;;;;;;;2.93;1.90;;;13.30;99.90;;;;;;5053483;28;20463;-77
2022/09/17 13:39:45;;;;;;;3.63;1.90;;;13.30;99.90;;;;;;5053804;28;20448;-76
2022/09/17 13:42:19;;;;;;;4.00;2.30;;;13.40;99.90;;;;;;5053348;28;20445;-76
2022/09/17 13:44:52;;;;;;;3.90;1.80;;;13.50;99.90;;;;;;5053407;28;20468;-77
2022/09/17 13:47:26;;;;;;;4.23;1.60;;;13.60;99.90;;;;;;5053299;28;20460;-77
2022/09/17 13:49:58;;;;;;;4.27;1.60;;;13.70;99.90;;;;;;5053484;28;20512;-77
2022/09/17 13:52:45;;;;;;;2.43;1.30;;;13.80;99.90;;;;;;5053395;28;20499;-77
2022/09/17 13:55:35;;;;;;;2.30;1.27;;;13.90;99.90;;;;;;5052913;28;20433;-76
2022/09/17 13:58:05;;;;;;;2.57;1.33;;;14.00;99.90;;;;;;5053510;28;20484;-77
2022/09/17 14:00:51;;;;;;;2.93;1.27;;;14.10;99.90;;;;;;5052873;28;20460;-77
2022/09/17 14:03:51;;;;;;;1.93;1.20;;;14.30;99.90;;;;;;5079460;22;20510;-77
2022/09/17 14:06:52;;;;;;;2.20;1.10;;;14.40;99.90;;;;;;5073266;28;20816;-77
2022/09/17 14:09:50;;;;;;;3.57;1.17;;;14.30;99.90;;;;;;5073538;28;20436;-77
2022/09/17 14:12:55;;;;;;;1.40;1.10;;;14.20;99.90;;;;;;5060746;28;20574;-77
2022/09/17 14:16:00;;;;;;;3.83;1.30;;;14.20;99.90;;;;;;5052929;28;20460;-77
2022/09/17 14:18:58;;;;;;;5.27;1.37;;;14.20;99.90;;;;;;4991209;28;20555;-77
2022/09/17 14:21:30;;;;;;;2.40;1.20;;;14.30;99.90;;;;;;5053336;28;20461;-77
2022/09/17 14:24:00;;;;;;;2.40;1.40;;;14.50;99.90;;;;;;5053281;28;20479;-77
2022/09/17 14:27:00;;;;;;;1.97;1.10;;;14.60;99.90;;;;;;5052646;28;20465;-78
2022/09/17 14:29:55;;;;;;;2.07;1.17;;;14.50;99.90;;;;;;5039445;28;20465;-77
2022/09/17 14:32:32;;;;;;;4.20;1.57;;;14.40;99.90;;;;;;5032714;28;20595;-78
2022/09/17 14:35:00;;;;;;;2.57;1.20;;;14.30;99.90;;;;;;5052776;28;20515;-77
2022/09/17 14:37:28;;;;;;;2.27;1.67;;;14.30;99.90;;;;;;5052795;28;20461;-78
2022/09/17 14:39:55;;;;;;;4.80;1.50;;;14.50;99.90;;;;;;5052911;28;20456;-78
2022/09/17 14:42:26;;;;;;;4.93;2.40;;;14.70;99.90;;;;;;5052630;28;21004;-78
2022/09/17 14:44:58;;;;;;;2.70;1.23;;;14.90;99.90;;;;;;5052340;28;21046;-77
2022/09/17 14:47:27;;;;;;;4.60;1.30;;;15.00;99.90;;;;;;5052868;28;20441;-78
2022/09/17 14:49:54;;;;;;;6.20;1.80;;;15.10;99.90;;;;;;5052595;28;20552;-76
2022/09/17 14:52:27;;;;;;;4.50;1.60;;;15.10;99.90;;;;;;5052619;28;20485;-79
2022/09/17 14:55:11;;;;;;;2.20;1.40;;;15.20;99.90;;;;;;5052380;28;20560;-77
2022/09/17 14:57:38;;;;;;;7.77;1.60;;;15.20;99.90;;;;;;5052454;28;20502;-78
2022/09/17 15:00:07;;;;;;;2.23;1.30;;;15.20;99.90;;;;;;5051914;28;20453;-78
2022/09/17 15:02:40;;;;;;;2.50;1.40;;;15.40;99.90;;;;;;5052402;28;20538;-76
2022/09/17 15:05:18;;;;;;;3.73;1.40;;;15.60;99.90;;;;;;5051729;28;20492;-76
2022/09/17 15:07:46;;;;;;;6.33;1.50;;;15.70;99.90;;;;;;5052487;28;20461;-76
2022/09/17 15:10:19;;;;;;;4.97;1.73;;;15.70;99.90;;;;;;5052232;28;20940;-76
2022/09/17 15:12:48;;;;;;;3.00;1.40;;;15.90;99.90;;;;;;5051996;28;20492;-76
2022/09/17 15:15:24;;;;;;;1.80;1.60;;;16.10;99.90;;;;;;5051780;28;20507;-77
2022/09/17 15:17:53;;;;;;;2.93;1.30;;;16.30;99.90;;;;;;5052181;28;20453;-77
2022/09/17 15:20:21;;;;;;;5.50;1.70;;;16.40;99.90;;;;;;5051929;28;20457;-78
2022/09/17 15:22:56;;;;;;;2.80;1.47;;;16.60;99.90;;;;;;5052262;28;20831;-77
2022/09/17 15:25:25;;;;;;;2.10;1.40;;;16.60;99.90;;;;;;5051752;28;20449;-77
2022/09/17 15:27:55;;;;;;;4.37;1.47;;;16.50;99.90;;;;;;5051464;28;20459;-77
2022/09/17 15:30:24;;;;;;;2.50;1.37;;;16.60;99.90;;;;;;5052138;28;20441;-77
2022/09/17 15:32:54;;;;;;;4.93;1.80;;;16.70;99.90;;;;;;5052077;28;20496;-77
2022/09/17 15:35:26;;;;;;;3.70;1.83;;;16.80;99.90;;;;;;5051843;28;20453;-77
2022/09/17 15:37:55;;;;;;;3.97;1.40;;;16.70;99.90;;;;;;5051904;28;20461;-77
2022/09/17 15:40:28;;;;;;;1.87;1.30;;;16.70;99.90;;;;;;5051612;28;20459;-77
2022/09/17 15:43:03;;;;;;;4.90;2.53;;;16.70;99.90;;;;;;5051647;28;20449;-77
2022/09/17 15:45:36;;;;;;;1.73;1.20;;;16.70;99.90;;;;;;5051728;28;20436;-77
2022/09/17 15:48:04;;;;;;;4.27;1.63;;;16.60;99.90;;;;;;5051771;28;20467;-77
2022/09/17 15:50:33;;;;;;;4.00;1.80;;;16.40;99.90;;;;;;5051728;28;20456;-77
2022/09/17 15:53:14;;;;;;;4.23;1.53;;;16.20;99.90;;;;;;5051156;28;21004;-77
2022/09/17 15:55:42;;;;;;;3.10;1.43;;;15.90;99.90;;;;;;5051678;28;20448;-77
2022/09/17 15:58:25;;;;;;;2.90;1.30;;;15.80;99.90;;;;;;5051580;28;20990;-77
2022/09/17 16:01:25;;;;;;;1.90;1.40;;;15.60;99.90;;;;;;5051534;28;20472;-77
2022/09/17 16:04:21;;;;;;;4.37;1.50;;;15.40;99.90;;;;;;5048108;28;20490;-77
2022/09/17 16:06:53;;;;;;;3.23;2.03;;;15.10;99.90;;;;;;5016530;28;20467;-77
2022/09/17 16:09:46;;;;;;;3.10;1.70;;;15.10;99.90;;;;;;5051492;28;20453;-77
2022/09/17 16:12:15;;;;;;;4.60;2.20;;;14.80;99.90;;;;;;5051048;28;20542;-77
2022/09/17 16:14:50;;;;;;;5.67;2.50;;;14.70;99.90;;;;;;5055075;28;20980;-77
2022/09/17 16:17:31;;;;;;;3.47;2.00;;;14.70;99.90;;;;;;5055500;28;20459;-77
2022/09/17 16:20:00;;;;;;;4.43;2.00;;;14.90;99.90;;;;;;5055268;28;20888;-77
2022/09/17 16:22:28;;;;;;;4.73;1.83;;;14.90;99.90;;;;;;5055679;28;20460;-77
2022/09/17 16:24:55;;;;;;;3.10;1.83;;;14.90;99.90;;;;;;5055383;28;20487;-77
2022/09/17 16:27:26;;;;;;;4.90;2.30;;;14.80;99.90;;;;;;5055559;28;20459;-77
2022/09/17 16:29:58;;;;;;;5.63;2.10;;;14.70;99.90;;;;;;5055350;28;20941;-77
2022/09/17 16:32:24;;;;;;;3.90;2.20;;;14.60;99.90;;;;;;5055399;28;20468;-78
2022/09/17 16:34:51;;;;;;;2.87;1.90;;;14.40;99.90;;;;;;5055179;28;20503;-77
2022/09/17 16:37:19;;;;;;;3.80;1.80;;;14.30;99.90;;;;;;5055428;28;20482;-77
2022/09/17 16:39:46;;;;;;;5.97;3.20;;;14.10;99.90;;;;;;5055190;28;20457;-77
2022/09/17 16:42:13;;;;;;;8.17;2.47;;;14.10;99.90;;;;;;5055134;28;20802;-77
2022/09/17 16:44:39;;;;;;;3.80;2.37;;;14.00;99.90;;;;;;5054565;28;20503;-77
2022/09/17 16:47:06;;;;;;;3.30;2.07;;;13.90;99.90;;;;;;5054728;28;20455;-77
2022/09/17 16:49:33;;;;;;;3.70;2.17;;;13.90;99.90;;;;;;5054973;28;20475;-77
2022/09/17 16:52:00;;;;;;;4.00;2.30;;;13.80;99.90;;;;;;5055034;28;20539;-77
2022/09/17 16:54:28;;;;;;;5.00;2.00;;;13.80;99.90;;;;;;5054272;28;21011;-77
2022/09/17 16:56:55;;;;;;;2.93;2.00;;;13.70;99.90;;;;;;5054916;28;20457;-77
2022/09/17 16:59:22;;;;;;;2.17;1.50;;;13.70;99.90;;;;;;5054557;28;20453;-77
2022/09/17 17:01:49;;;;;;;2.90;1.40;;;13.60;99.90;;;;;;5054454;28;20452;-77
2022/09/17 17:04:16;;;;;;;3.93;1.60;;;13.70;99.90;;;;;;5054217;28;20480;-77
2022/09/17 17:06:43;;;;;;;3.60;1.70;;;13.60;99.90;;;;;;5054756;28;20457;-77
2022/09/17 17:09:11;;;;;;;2.47;1.50;;;13.60;99.90;;;;;;5054548;28;20465;-77
2022/09/17 17:11:39;;;;;;;3.50;1.70;;;13.60;99.90;;;;;;5054702;28;20923;-77
2022/09/17 17:14:06;;;;;;;4.33;2.43;;;13.50;99.90;;;;;;5054155;28;20493;-77
2022/09/17 17:16:32;;;;;;;3.30;1.97;;;13.50;99.90;;;;;;5054234;28;20955;-77
2022/09/17 17:18:59;;;;;;;2.80;1.90;;;13.50;99.90;;;;;;5054451;28;20463;-77
2022/09/17 17:21:26;;;;;;;5.43;2.30;;;13.40;99.90;;;;;;5054516;28;20461;-77